Time;durP1;ratioP1;P1;durP2;ratioP2;P2;SDS_P1;SDS_P2;PMS_P1;PMS_P2;Temp;Humidity;BMP_temperature;BMP_pressure;BME280_temperature;BME280_humidity;BME280_pressure;Samples;Min_cycle;Max_cycle;Signal;HPM_P1;HPM_P2
2022/04/18 00:00:22;;;;;;;30.93;18.60;;;6.70;99.90;;;;;;5053611;28;20297;-61
2022/04/18 00:02:47;;;;;;;27.87;18.13;;;6.60;99.90;;;;;;5052309;28;20670;-62
2022/04/18 00:05:13;;;;;;;28.20;17.47;;;6.60;99.90;;;;;;5053109;28;20254;-62
2022/04/18 00:07:39;;;;;;;27.30;17.83;;;6.60;99.90;;;;;;5053778;28;20232;-61
2022/04/18 00:10:05;;;;;;;30.20;16.40;;;6.60;99.90;;;;;;5053503;28;20240;-62
2022/04/18 00:12:31;;;;;;;24.23;15.37;;;6.50;99.90;;;;;;5053690;28;20631;-61
2022/04/18 00:14:57;;;;;;;28.50;17.03;;;6.50;99.90;;;;;;5053546;28;20261;-62
2022/04/18 00:17:23;;;;;;;27.40;16.90;;;6.50;99.90;;;;;;5053674;28;20170;-62
2022/04/18 00:19:49;;;;;;;27.63;17.63;;;6.20;99.90;;;;;;5053156;28;20182;-61
2022/04/18 00:22:15;;;;;;;27.60;17.63;;;6.10;99.90;;;;;;5053438;28;20202;-61
2022/04/18 00:24:40;;;;;;;29.00;18.13;;;5.90;99.90;;;;;;5053485;28;20585;-62
2022/04/18 00:27:06;;;;;;;27.30;17.83;;;5.70;99.90;;;;;;5053636;28;20202;-61
2022/04/18 00:29:32;;;;;;;31.03;18.07;;;5.70;99.90;;;;;;5053732;28;20173;-63
2022/04/18 00:31:57;;;;;;;25.77;16.53;;;5.70;99.90;;;;;;5053307;28;20197;-61
2022/04/18 00:34:23;;;;;;;28.93;17.37;;;5.80;99.90;;;;;;5051837;28;20174;-62
2022/04/18 00:36:49;;;;;;;27.53;17.83;;;5.80;99.90;;;;;;5053560;28;20537;-61
2022/04/18 00:39:15;;;;;;;29.97;17.80;;;5.80;99.90;;;;;;5053320;28;20674;-61
2022/04/18 00:41:41;;;;;;;27.73;17.80;;;5.80;99.90;;;;;;5052974;28;20209;-62
2022/04/18 00:44:06;;;;;;;29.47;17.63;;;5.70;99.90;;;;;;5053205;28;20166;-61
2022/04/18 00:46:32;;;;;;;25.00;17.40;;;5.70;99.90;;;;;;5053312;28;20198;-61
2022/04/18 00:48:58;;;;;;;28.80;17.67;;;5.70;99.90;;;;;;5052927;28;20515;-61
2022/04/18 00:51:25;;;;;;;27.37;17.00;;;5.80;99.90;;;;;;5053005;28;20265;-61
2022/04/18 00:53:56;;;;;;;28.33;17.80;;;5.90;99.90;;;;;;5053060;28;20643;-61
2022/04/18 00:56:23;;;;;;;25.00;15.83;;;5.80;99.90;;;;;;5053060;28;20205;-61
2022/04/18 00:58:50;;;;;;;29.03;15.87;;;5.90;99.90;;;;;;5053114;28;20224;-61
2022/04/18 01:01:17;;;;;;;25.80;16.23;;;5.90;99.90;;;;;;5053069;28;20667;-61
2022/04/18 01:03:43;;;;;;;24.17;15.73;;;5.90;99.90;;;;;;5052905;28;20216;-61
2022/04/18 01:06:10;;;;;;;22.70;14.20;;;5.90;99.90;;;;;;5053313;28;20262;-62
2022/04/18 01:08:36;;;;;;;26.53;15.33;;;5.70;99.90;;;;;;5053186;28;20197;-61
2022/04/18 01:11:05;;;;;;;24.57;16.30;;;5.70;99.90;;;;;;5052851;28;20741;-62
2022/04/18 01:13:39;;;;;;;27.90;14.83;;;5.60;99.90;;;;;;5053257;28;20185;-61
2022/04/18 01:16:04;;;;;;;24.63;15.00;;;5.70;99.90;;;;;;5052945;28;20632;-62
2022/04/18 01:18:30;;;;;;;20.87;14.13;;;5.70;99.90;;;;;;5056115;28;20173;-63
2022/04/18 01:20:56;;;;;;;24.00;14.10;;;5.70;99.90;;;;;;5056464;28;20600;-63
2022/04/18 01:23:22;;;;;;;22.30;14.60;;;5.60;99.90;;;;;;5056427;28;20197;-63
2022/04/18 01:31:16;;;;;;;22.63;14.27;;;5.50;99.90;;;;;;5056250;28;20198;-63
2022/04/18 01:33:41;;;;;;;20.67;13.70;;;5.40;99.90;;;;;;5055978;28;20174;-62
2022/04/18 01:36:07;;;;;;;22.90;13.73;;;5.50;99.90;;;;;;5056569;28;20209;-63
2022/04/18 01:38:33;;;;;;;20.53;13.53;;;5.40;99.90;;;;;;5056198;28;20182;-62
2022/04/18 01:40:59;;;;;;;22.17;13.77;;;5.40;99.90;;;;;;5056287;28;20222;-62
2022/04/18 01:43:24;;;;;;;22.07;13.47;;;5.40;99.90;;;;;;5056182;28;20178;-62
2022/04/18 01:45:50;;;;;;;22.10;14.37;;;5.40;99.90;;;;;;5056313;28;20174;-63
2022/04/18 01:48:16;;;;;;;19.97;13.20;;;5.30;99.90;;;;;;5054747;28;20250;-62
2022/04/18 01:50:42;;;;;;;21.93;13.80;;;5.40;99.90;;;;;;5054678;28;20260;-63
2022/04/18 01:53:08;;;;;;;19.63;13.87;;;5.30;99.90;;;;;;5056156;28;20170;-62
2022/04/18 01:55:34;;;;;;;20.50;13.83;;;5.30;99.90;;;;;;5056170;28;20199;-63
2022/04/18 01:58:00;;;;;;;20.77;13.83;;;5.40;99.90;;;;;;5056447;28;20170;-62
2022/04/18 02:00:26;;;;;;;24.47;13.33;;;5.30;99.90;;;;;;5056255;28;20191;-62
2022/04/18 02:02:53;;;;;;;18.70;12.37;;;5.30;99.90;;;;;;5055776;28;20225;-62
2022/04/18 02:05:19;;;;;;;17.43;11.80;;;5.30;99.90;;;;;;5055617;28;20174;-62
2022/04/18 02:07:45;;;;;;;16.30;11.43;;;5.30;99.90;;;;;;5055998;28;20178;-63
2022/04/18 02:10:10;;;;;;;16.00;11.67;;;5.30;99.90;;;;;;5055533;28;20206;-63
2022/04/18 02:12:36;;;;;;;13.23;10.17;;;5.30;99.90;;;;;;5056147;28;20167;-63
2022/04/18 02:15:02;;;;;;;17.93;10.97;;;5.30;99.90;;;;;;5055672;28;20175;-62
2022/04/18 02:17:28;;;;;;;15.60;10.13;;;5.40;99.90;;;;;;5055642;28;20185;-63
2022/04/18 02:19:53;;;;;;;16.30;10.50;;;5.30;99.90;;;;;;5055425;28;20178;-63
2022/04/18 02:22:22;;;;;;;13.20;8.80;;;5.30;99.90;;;;;;5055669;28;20213;-63
2022/04/18 02:24:48;;;;;;;15.57;9.67;;;5.30;99.90;;;;;;5055780;28;20225;-63
2022/04/18 02:27:14;;;;;;;14.80;9.80;;;5.40;99.90;;;;;;5054103;28;20635;-62
2022/04/18 02:29:39;;;;;;;13.53;9.70;;;5.30;99.90;;;;;;5054921;28;20179;-63
2022/04/18 02:34:50;;;;;;;16.60;10.80;;;5.20;99.90;;;;;;5055176;28;20250;-63
2022/04/18 02:37:15;;;;;;;14.60;10.57;;;5.20;99.90;;;;;;5055580;28;20202;-63
2022/04/18 02:39:41;;;;;;;16.03;11.20;;;5.10;99.90;;;;;;5055107;28;20232;-63
2022/04/18 02:42:07;;;;;;;16.23;11.67;;;5.00;99.90;;;;;;5053806;28;20206;-62
2022/04/18 02:44:32;;;;;;;16.43;11.77;;;5.00;99.90;;;;;;5053750;28;20198;-63
2022/04/18 02:46:58;;;;;;;15.13;10.97;;;4.90;99.90;;;;;;5054858;28;20256;-62
2022/04/18 02:49:24;;;;;;;18.30;11.77;;;4.90;99.90;;;;;;5054202;28;20179;-62
2022/04/18 02:51:49;;;;;;;17.47;11.50;;;4.80;99.90;;;;;;5055646;28;20198;-63
2022/04/18 02:54:15;;;;;;;12.90;9.73;;;4.80;99.90;;;;;;5054793;28;20313;-63
2022/04/18 02:56:41;;;;;;;18.40;11.00;;;4.70;99.90;;;;;;5054725;28;20669;-63
2022/04/18 02:59:06;;;;;;;15.90;10.37;;;4.70;99.90;;;;;;5054779;28;20258;-63
2022/04/18 03:01:32;;;;;;;12.63;10.53;;;4.70;99.90;;;;;;5054633;28;20205;-63
2022/04/18 03:03:58;;;;;;;13.67;10.13;;;4.70;99.90;;;;;;5054840;28;20154;-63
2022/04/18 03:06:24;;;;;;;13.67;9.80;;;4.70;99.90;;;;;;5054745;28;20182;-63
2022/04/18 03:08:50;;;;;;;14.03;9.80;;;4.70;99.90;;;;;;5054725;28;20179;-62
2022/04/18 03:11:15;;;;;;;12.87;9.43;;;4.70;99.90;;;;;;5054769;28;20202;-62
2022/04/18 03:13:44;;;;;;;12.60;8.90;;;4.70;99.90;;;;;;5055179;28;20585;-62
2022/04/18 03:16:11;;;;;;;10.37;8.50;;;4.70;99.90;;;;;;5054740;28;20639;-62
2022/04/18 03:18:37;;;;;;;10.07;8.40;;;4.70;99.90;;;;;;5054597;28;20170;-62
2022/04/18 03:21:04;;;;;;;15.57;9.00;;;4.60;99.90;;;;;;5054022;28;20248;-63
2022/04/18 03:23:30;;;;;;;11.07;8.63;;;4.60;99.90;;;;;;5054592;28;20166;-62
2022/04/18 03:25:57;;;;;;;14.07;8.73;;;4.60;99.90;;;;;;5053063;28;20588;-63
2022/04/18 03:28:23;;;;;;;8.83;7.63;;;4.50;99.90;;;;;;5054299;28;20178;-63
2022/04/18 03:30:49;;;;;;;11.27;8.03;;;4.50;99.90;;;;;;5054399;28;20216;-62
2022/04/18 03:33:15;;;;;;;11.27;7.67;;;4.50;99.90;;;;;;5055041;28;20155;-64
2022/04/18 03:39:50;;;;;;;9.63;7.40;;;4.50;99.90;;;;;;5054241;28;20639;-62
2022/04/18 03:41:11;;;;;;;12.13;7.90;;;4.50;99.90;;;;;;5053806;28;20209;-62
2022/04/18 03:43:37;;;;;;;11.00;7.87;;;4.40;99.90;;;;;;5054564;28;20171;-63
2022/04/18 03:46:03;;;;;;;9.37;7.77;;;4.40;99.90;;;;;;5054301;28;20305;-63
2022/04/18 03:48:28;;;;;;;9.40;7.90;;;4.20;99.90;;;;;;5052716;28;20181;-62
2022/04/18 03:50:54;;;;;;;11.13;8.40;;;4.30;99.90;;;;;;5053705;28;20218;-62
2022/04/18 03:53:20;;;;;;;10.37;7.47;;;4.20;99.90;;;;;;5052621;28;20651;-63
2022/04/18 03:55:45;;;;;;;10.80;7.40;;;4.20;99.90;;;;;;5052551;28;20643;-62
2022/04/18 03:58:11;;;;;;;10.17;7.60;;;4.20;99.90;;;;;;5053727;28;20261;-63
2022/04/18 04:00:39;;;;;;;9.93;7.30;;;4.20;99.90;;;;;;5053620;28;20199;-63
2022/04/18 04:03:04;;;;;;;10.43;8.07;;;4.20;99.90;;;;;;5053886;28;20198;-63
2022/04/18 04:05:30;;;;;;;10.53;7.73;;;4.10;99.90;;;;;;5053489;28;20197;-62
2022/04/18 04:07:56;;;;;;;8.77;7.17;;;4.10;99.90;;;;;;5053930;28;20607;-63
2022/04/18 04:10:21;;;;;;;10.73;7.77;;;4.10;99.90;;;;;;5053640;28;20233;-63
2022/04/18 04:12:47;;;;;;;10.87;9.03;;;4.10;99.90;;;;;;5053924;28;20577;-63
2022/04/18 04:15:13;;;;;;;8.70;7.67;;;4.10;99.90;;;;;;5052343;28;20175;-63
2022/04/18 04:17:38;;;;;;;10.90;7.60;;;4.00;99.90;;;;;;5052139;28;20182;-63
2022/04/18 04:20:04;;;;;;;10.00;8.10;;;4.00;99.90;;;;;;5053289;28;20198;-63
2022/04/18 04:22:30;;;;;;;12.03;7.87;;;4.00;99.90;;;;;;5052171;28;20678;-62
2022/04/18 04:24:57;;;;;;;10.13;8.13;;;4.00;99.90;;;;;;5053371;28;20162;-62
2022/04/18 04:27:23;;;;;;;11.53;8.10;;;3.90;99.90;;;;;;5053365;28;20676;-63
2022/04/18 04:29:49;;;;;;;9.80;7.87;;;3.90;99.90;;;;;;5053288;28;20253;-63
2022/04/18 04:32:15;;;;;;;11.07;8.27;;;3.90;99.90;;;;;;5053293;28;20211;-63
2022/04/18 04:34:41;;;;;;;12.33;7.50;;;3.80;99.90;;;;;;5053055;28;20181;-63
2022/04/18 04:37:07;;;;;;;10.37;7.80;;;3.80;99.90;;;;;;5053909;28;20182;-63
2022/04/18 04:39:32;;;;;;;10.47;8.23;;;3.90;99.90;;;;;;5053231;28;20178;-63
2022/04/18 04:41:58;;;;;;;9.80;7.73;;;3.90;99.90;;;;;;5053105;28;20203;-63
2022/04/18 04:44:23;;;;;;;10.40;7.63;;;3.90;99.90;;;;;;5053512;28;20170;-63
2022/04/18 04:46:50;;;;;;;8.27;7.20;;;3.90;99.90;;;;;;5052047;28;20225;-63
2022/04/18 04:49:16;;;;;;;9.57;7.57;;;4.00;99.90;;;;;;5052866;28;20195;-63
2022/04/18 04:51:42;;;;;;;9.33;7.53;;;4.00;99.90;;;;;;5054790;28;20198;-62
2022/04/18 04:54:08;;;;;;;8.27;7.47;;;4.00;99.90;;;;;;5057075;28;20220;-63
2022/04/18 04:56:34;;;;;;;8.27;7.43;;;4.00;99.90;;;;;;5057162;28;20182;-63
2022/04/18 04:59:00;;;;;;;10.40;8.10;;;4.00;99.90;;;;;;5056847;28;20179;-62
2022/04/18 05:01:25;;;;;;;10.43;8.20;;;4.00;99.90;;;;;;5056949;28;20206;-62
2022/04/18 05:03:52;;;;;;;9.37;8.37;;;4.00;99.90;;;;;;5057067;28;20262;-62
2022/04/18 05:06:18;;;;;;;10.23;8.03;;;4.10;99.90;;;;;;5056527;28;20525;-62
2022/04/18 05:08:43;;;;;;;10.33;7.57;;;4.10;99.90;;;;;;5056749;28;20178;-62
2022/04/18 05:11:09;;;;;;;10.73;8.07;;;4.20;99.90;;;;;;5056747;28;20217;-62
2022/04/18 05:13:35;;;;;;;9.40;7.73;;;4.20;99.90;;;;;;5056600;28;20643;-63
2022/04/18 05:16:01;;;;;;;11.93;7.80;;;4.20;99.90;;;;;;5056822;28;20613;-63
2022/04/18 05:18:27;;;;;;;13.90;8.33;;;4.30;99.90;;;;;;5057327;28;20542;-62
2022/04/18 05:20:52;;;;;;;8.83;7.70;;;4.30;99.90;;;;;;5056223;28;20186;-62
2022/04/18 05:23:21;;;;;;;10.03;7.77;;;4.40;99.90;;;;;;5057019;28;20191;-63
2022/04/18 05:25:47;;;;;;;9.20;7.53;;;4.40;99.90;;;;;;5056713;28;20507;-62
2022/04/18 05:28:12;;;;;;;9.67;7.47;;;4.50;99.90;;;;;;5056364;28;20181;-63
2022/04/18 05:30:39;;;;;;;10.57;8.07;;;4.60;99.90;;;;;;5056301;28;20253;-63
2022/04/18 05:33:08;;;;;;;10.57;7.13;;;4.60;99.90;;;;;;5056339;28;20170;-62
2022/04/18 05:35:34;;;;;;;9.93;7.50;;;4.80;99.90;;;;;;5054763;28;20209;-61
2022/04/18 05:38:00;;;;;;;8.60;7.27;;;4.90;99.90;;;;;;5056323;28;20212;-62
2022/04/18 05:40:26;;;;;;;9.83;7.80;;;5.00;99.90;;;;;;5056062;28;20194;-62
2022/04/18 05:42:52;;;;;;;8.87;7.93;;;5.10;99.90;;;;;;5054860;28;20201;-61
2022/04/18 05:45:17;;;;;;;8.97;7.43;;;5.20;99.90;;;;;;5055986;28;20162;-62
2022/04/18 05:47:43;;;;;;;10.63;8.17;;;5.20;99.90;;;;;;5056303;28;20182;-62
2022/04/18 05:50:09;;;;;;;12.27;8.77;;;5.30;99.90;;;;;;5055910;28;20194;-63
2022/04/18 05:52:35;;;;;;;12.77;8.30;;;5.30;99.90;;;;;;5056604;28;20647;-65
2022/04/18 05:55:01;;;;;;;11.90;8.53;;;5.50;99.90;;;;;;5056387;28;20636;-63
2022/04/18 05:57:26;;;;;;;8.30;7.40;;;5.60;99.90;;;;;;5055838;28;20603;-63
2022/04/18 05:59:52;;;;;;;11.03;8.30;;;5.70;99.90;;;;;;5055629;28;20179;-63
2022/04/18 06:02:18;;;;;;;11.03;7.93;;;5.80;99.90;;;;;;5055489;28;20256;-63
2022/04/18 06:04:44;;;;;;;11.33;8.40;;;6.00;99.90;;;;;;5055236;28;20640;-64
2022/04/18 06:07:09;;;;;;;10.23;8.07;;;6.10;99.90;;;;;;5056018;28;20182;-64
2022/04/18 06:09:35;;;;;;;9.17;7.63;;;6.20;99.90;;;;;;5054241;28;20187;-62
2022/04/18 06:12:01;;;;;;;8.97;7.37;;;6.40;99.90;;;;;;5054139;28;20225;-64
2022/04/18 06:14:27;;;;;;;12.80;8.23;;;6.50;99.90;;;;;;5056024;28;20179;-61
2022/04/18 06:16:53;;;;;;;10.87;7.73;;;6.70;99.90;;;;;;5055347;28;20201;-63
2022/04/18 06:19:19;;;;;;;10.73;7.73;;;6.90;99.90;;;;;;5055335;28;20176;-62
2022/04/18 06:21:45;;;;;;;11.13;7.90;;;7.10;99.90;;;;;;5054926;28;20198;-64
2022/04/18 06:24:10;;;;;;;13.67;8.03;;;7.30;99.90;;;;;;5055493;28;20182;-62
2022/04/18 06:26:36;;;;;;;11.07;7.70;;;7.40;99.90;;;;;;5055239;28;20171;-62
2022/04/18 06:29:02;;;;;;;9.67;7.50;;;7.60;99.90;;;;;;5055710;28;20197;-63
2022/04/18 06:31:28;;;;;;;8.27;7.10;;;7.70;99.90;;;;;;5055051;28;20186;-63
2022/04/18 06:33:54;;;;;;;10.23;6.83;;;8.00;99.90;;;;;;5054979;28;20166;-61
2022/04/18 06:36:20;;;;;;;12.90;7.40;;;8.20;99.90;;;;;;5054884;28;20266;-62
2022/04/18 06:38:46;;;;;;;8.73;6.93;;;8.40;99.90;;;;;;5053691;28;20178;-62
2022/04/18 06:41:12;;;;;;;9.57;6.80;;;8.50;99.90;;;;;;5054797;28;20239;-62
2022/04/18 06:43:38;;;;;;;9.50;6.77;;;8.70;99.90;;;;;;5055152;28;20249;-63
2022/04/18 06:46:03;;;;;;;9.00;7.33;;;8.90;99.90;;;;;;5055073;28;20174;-63
2022/04/18 06:48:29;;;;;;;8.50;6.30;;;9.00;99.90;;;;;;5055037;28;20170;-62
2022/04/18 06:50:55;;;;;;;13.13;8.37;;;9.10;99.90;;;;;;5054363;28;20198;-63
2022/04/18 06:53:20;;;;;;;12.40;7.97;;;9.20;99.90;;;;;;5054920;28;20263;-63
2022/04/18 06:58:31;;;;;;;8.63;6.33;;;9.40;99.90;;;;;;5054544;28;20213;-63
2022/04/18 07:00:56;;;;;;;8.50;5.90;;;9.50;99.90;;;;;;5054626;28;20608;-64
2022/04/18 07:03:22;;;;;;;6.53;5.50;;;9.60;99.90;;;;;;5054640;28;20197;-65
2022/04/18 07:05:48;;;;;;;8.53;6.43;;;9.80;99.90;;;;;;5053046;28;20185;-64
2022/04/18 07:08:14;;;;;;;8.73;6.20;;;9.90;99.90;;;;;;5054461;28;20175;-65
2022/04/18 07:10:40;;;;;;;8.17;6.40;;;9.90;99.90;;;;;;5052926;28;20561;-65
2022/04/18 07:13:05;;;;;;;8.70;5.57;;;10.00;99.90;;;;;;5054902;28;20175;-65
2022/04/18 07:15:32;;;;;;;9.03;5.80;;;10.10;99.90;;;;;;5053339;28;20265;-65
2022/04/18 07:17:59;;;;;;;12.73;6.53;;;10.20;99.90;;;;;;5054370;28;20178;-63
2022/04/18 07:20:25;;;;;;;7.27;5.83;;;10.30;99.90;;;;;;5054130;28;20228;-63
2022/04/18 07:22:51;;;;;;;10.07;5.80;;;10.40;99.90;;;;;;5054031;28;20202;-62
2022/04/18 07:25:17;;;;;;;8.57;5.97;;;10.50;99.90;;;;;;5054123;28;20269;-62
2022/04/18 07:27:46;;;;;;;6.77;5.40;;;10.70;99.90;;;;;;5054426;28;20166;-62
2022/04/18 07:30:12;;;;;;;6.63;5.23;;;10.80;99.90;;;;;;5055245;28;20186;-63
2022/04/18 07:32:42;;;;;;;6.40;5.20;;;10.90;99.90;;;;;;5054523;28;20193;-62
2022/04/18 07:35:09;;;;;;;8.33;5.93;;;11.00;99.90;;;;;;5054003;28;20174;-62
2022/04/18 07:37:35;;;;;;;5.90;4.80;;;11.10;99.90;;;;;;5053791;28;20193;-62
2022/04/18 07:40:01;;;;;;;7.77;5.00;;;11.30;99.90;;;;;;5053762;28;20179;-62
2022/04/18 07:42:27;;;;;;;7.17;5.13;;;11.50;99.90;;;;;;5053843;28;20256;-63
2022/04/18 07:44:53;;;;;;;6.67;4.73;;;11.70;99.90;;;;;;5052523;28;20174;-62
2022/04/18 07:47:19;;;;;;;7.80;5.07;;;11.90;99.90;;;;;;5056647;28;20174;-62
2022/04/18 07:49:45;;;;;;;5.37;4.70;;;12.00;99.90;;;;;;5054265;28;20638;-62
2022/04/18 07:52:12;;;;;;;5.07;4.37;;;11.90;99.90;;;;;;5053861;28;20545;-62
2022/04/18 07:54:38;;;;;;;9.93;5.00;;;11.90;99.90;;;;;;5052312;28;20185;-62
2022/04/18 07:57:05;;;;;;;8.97;5.33;;;11.90;99.90;;;;;;5052274;28;20209;-62
2022/04/18 07:59:31;;;;;;;6.80;4.67;;;12.10;99.90;;;;;;5053892;28;20170;-63
2022/04/18 08:01:57;;;;;;;6.17;4.87;;;12.20;99.90;;;;;;5053442;28;20202;-62
2022/04/18 08:04:23;;;;;;;6.60;4.30;;;12.40;99.90;;;;;;5053783;28;20170;-62
2022/04/18 08:06:48;;;;;;;5.30;4.27;;;12.50;99.90;;;;;;5053276;28;20170;-62
2022/04/18 08:09:14;;;;;;;5.57;3.90;;;12.70;99.90;;;;;;5053501;28;20647;-62
2022/04/18 08:11:40;;;;;;;5.70;4.60;;;12.60;99.90;;;;;;5053215;28;20289;-62
2022/04/18 08:14:05;;;;;;;4.80;4.33;;;12.60;99.90;;;;;;5053365;28;20639;-63
2022/04/18 08:16:31;;;;;;;5.57;4.27;;;12.60;99.90;;;;;;5053922;28;20167;-63
2022/04/18 08:18:57;;;;;;;5.13;4.40;;;12.90;99.90;;;;;;5053349;28;20174;-62
2022/04/18 08:21:23;;;;;;;8.07;4.20;;;13.20;99.90;;;;;;5053173;28;20585;-63
2022/04/18 08:23:53;;;;;;;6.63;4.50;;;13.80;99.90;;;;;;5053659;28;20169;-63
2022/04/18 08:26:19;;;;;;;4.75;3.83;;;14.80;99.90;;;;;;5055864;28;20227;-63
2022/04/18 08:28:45;;;;;;;5.40;3.78;;;16.40;99.90;;;;;;5059937;28;20174;-62
2022/04/18 08:31:11;;;;;;;5.88;3.55;;;17.60;99.90;;;;;;5060115;28;20197;-63
2022/04/18 08:33:37;;;;;;;17.85;9.05;;;18.80;99.90;;;;;;5058613;28;20190;-63
2022/04/18 08:36:04;;;;;;;5.72;3.95;;;18.70;99.90;;;;;;5058327;28;20629;-63
2022/04/18 08:38:29;;;;;;;3.65;3.20;;;19.00;99.90;;;;;;5069366;28;20188;-63
2022/04/18 08:40:57;;;;;;;3.35;3.05;;;19.30;99.90;;;;;;5079881;28;20190;-63
2022/04/18 08:43:23;;;;;;;4.80;3.20;;;20.10;99.90;;;;;;5080179;28;20193;-63
2022/04/18 08:45:49;;;;;;;5.35;3.20;;;20.80;99.90;;;;;;5080503;28;20173;-63
2022/04/18 08:53:47;;;;;;;4.82;3.10;;;21.40;99.90;;;;;;5082028;28;20165;-72
2022/04/18 08:56:13;;;;;;;4.20;3.05;;;21.10;99.90;;;;;;5080722;28;20614;-72
2022/04/18 08:58:40;;;;;;;4.35;3.78;;;20.60;99.90;;;;;;5078873;28;20235;-71
2022/04/18 09:01:07;;;;;;;4.45;3.72;;;21.10;99.90;;;;;;5080187;28;20192;-72
2022/04/18 09:03:35;;;;;;;3.97;3.08;;;21.40;99.90;;;;;;5080143;28;20189;-72
2022/04/18 09:06:10;;;;;;;5.38;3.10;;;21.30;99.90;;;;;;5079668;28;20161;-72
2022/04/18 09:08:54;;;;;;;4.00;3.08;;;21.30;99.90;;;;;;5069540;28;20212;-64
2022/04/18 09:11:29;;;;;;;5.00;3.33;;;21.20;99.90;;;;;;5059555;28;20205;-63
2022/04/18 09:14:02;;;;;;;6.38;3.15;;;21.40;99.90;;;;;;5059592;28;20593;-63
2022/04/18 09:16:31;;;;;;;4.15;2.90;;;21.20;99.90;;;;;;5058850;28;20580;-62
2022/04/18 09:19:05;;;;;;;3.75;3.25;;;20.90;99.90;;;;;;5060111;28;20171;-66
2022/04/18 09:21:32;;;;;;;3.47;3.13;;;21.00;99.90;;;;;;5059548;28;20554;-66
2022/04/18 09:23:58;;;;;;;5.03;3.30;;;20.90;99.90;;;;;;5059851;28;20220;-67
2022/04/18 09:26:24;;;;;;;3.95;3.55;;;20.60;99.90;;;;;;5059629;28;20174;-66
2022/04/18 09:28:50;;;;;;;3.78;3.08;;;20.00;99.90;;;;;;5058274;28;20189;-66
2022/04/18 09:31:19;;;;;;;5.00;3.20;;;19.80;99.90;;;;;;5058156;28;20293;-63
2022/04/18 09:33:56;;;;;;;3.92;3.10;;;19.80;99.90;;;;;;5058168;28;20181;-63
2022/04/18 09:36:23;;;;;;;4.60;3.13;;;19.90;99.90;;;;;;5059429;28;20162;-62
2022/04/18 09:38:56;;;;;;;4.38;3.45;;;19.40;99.90;;;;;;5056123;28;20183;-62
2022/04/18 09:41:28;;;;;;;3.83;3.17;;;19.20;99.90;;;;;;5056454;28;20668;-62
2022/04/18 09:43:55;;;;;;;3.83;2.90;;;18.80;99.90;;;;;;5056074;28;20166;-62
2022/04/18 09:46:22;;;;;;;4.70;3.25;;;18.70;99.90;;;;;;5056139;28;20170;-62
2022/04/18 09:48:50;;;;;;;3.55;3.25;;;18.80;99.90;;;;;;5056068;28;20159;-62
2022/04/18 09:51:26;;;;;;;5.47;3.15;;;18.70;99.90;;;;;;5055743;28;20190;-62
2022/04/18 09:53:59;;;;;;;3.45;3.03;;;18.70;99.90;;;;;;5055982;28;20312;-62
2022/04/18 09:56:29;;;;;;;4.13;3.30;;;18.30;99.90;;;;;;5055903;28;20173;-62
2022/04/18 09:58:58;;;;;;;3.60;3.08;;;18.40;99.90;;;;;;5054501;28;20261;-62
2022/04/18 10:01:25;;;;;;;4.47;2.95;;;18.50;99.90;;;;;;5054298;28;20729;-62
2022/04/18 10:03:52;;;;;;;4.25;3.13;;;18.50;99.90;;;;;;5055719;28;20181;-63
2022/04/18 10:06:19;;;;;;;3.20;2.90;;;18.50;99.90;;;;;;5055923;28;20162;-62
2022/04/18 10:08:45;;;;;;;6.72;2.88;;;18.50;99.90;;;;;;5055824;28;20655;-63
2022/04/18 10:11:11;;;;;;;3.60;3.22;;;18.50;99.90;;;;;;5054264;28;20236;-62
2022/04/18 10:13:37;;;;;;;4.03;3.20;;;18.50;99.90;;;;;;5055550;28;20207;-63
2022/04/18 10:16:04;;;;;;;3.67;2.80;;;18.60;99.90;;;;;;5055890;28;20163;-63
2022/04/18 10:18:35;;;;;;;5.40;3.20;;;18.80;99.90;;;;;;5055522;28;20635;-62
2022/04/18 10:21:07;;;;;;;4.05;3.22;;;18.70;99.90;;;;;;5055529;28;20289;-63
2022/04/18 10:23:44;;;;;;;4.43;3.08;;;18.70;99.90;;;;;;5055350;28;20230;-63
2022/04/18 10:26:47;;;;;;;8.88;4.18;;;18.80;99.90;;;;;;5055237;28;20680;-63
2022/04/18 10:29:18;;;;;;;5.70;3.55;;;18.80;99.90;;;;;;5055279;28;20204;-63
2022/04/18 10:31:45;;;;;;;4.20;2.90;;;18.90;99.90;;;;;;5055419;28;20681;-62
2022/04/18 10:34:15;;;;;;;3.33;3.08;;;19.00;99.90;;;;;;5055208;28;20189;-63
2022/04/18 10:36:50;;;;;;;5.00;3.67;;;19.20;99.90;;;;;;5055080;28;20174;-62
2022/04/18 10:39:16;;;;;;;4.43;3.63;;;19.10;99.90;;;;;;5055225;28;20672;-63
2022/04/18 10:41:45;;;;;;;3.85;3.40;;;19.00;99.90;;;;;;5055414;28;20286;-63
2022/04/18 10:44:12;;;;;;;5.57;3.58;;;18.80;99.90;;;;;;5055699;28;20671;-62
2022/04/18 10:46:58;;;;;;;14.80;3.65;;;19.00;99.90;;;;;;5055624;28;20189;-63
2022/04/18 10:49:24;;;;;;;5.25;3.03;;;19.00;99.90;;;;;;5054669;28;20251;-62
2022/04/18 10:51:52;;;;;;;4.78;3.97;;;19.20;99.90;;;;;;5054763;28;20206;-63
2022/04/18 10:54:25;;;;;;;5.50;4.00;;;19.20;99.90;;;;;;5054904;28;20178;-63
2022/04/18 10:56:56;;;;;;;4.75;3.60;;;19.10;99.90;;;;;;5053649;28;20170;-63
2022/04/18 10:59:24;;;;;;;6.85;3.65;;;19.10;99.90;;;;;;5053361;28;20182;-63
2022/04/18 11:01:51;;;;;;;5.63;4.25;;;19.30;99.90;;;;;;5053264;28;20215;-63
2022/04/18 11:04:17;;;;;;;5.03;3.65;;;19.30;99.90;;;;;;5055063;28;20257;-63
2022/04/18 11:06:45;;;;;;;5.93;3.95;;;19.50;99.90;;;;;;5054378;28;20181;-63
2022/04/18 11:09:14;;;;;;;5.25;3.88;;;19.50;99.90;;;;;;5054326;28;20257;-63
2022/04/18 11:11:45;;;;;;;5.43;4.10;;;19.60;99.90;;;;;;5053188;28;20210;-64
2022/04/18 11:14:25;;;;;;;5.40;3.30;;;19.90;99.90;;;;;;5054940;28;20165;-62
2022/04/18 11:17:03;;;;;;;4.63;3.40;;;20.10;99.90;;;;;;5054972;28;20147;-63
2022/04/18 11:19:39;;;;;;;4.18;3.05;;;20.20;99.90;;;;;;5054250;28;20163;-64
2022/04/18 11:22:29;;;;;;;4.50;3.70;;;20.40;99.90;;;;;;5054035;28;20587;-63
2022/04/18 11:24:56;;;;;;;4.80;3.63;;;20.40;99.90;;;;;;5054136;28;20253;-62
2022/04/18 11:27:28;;;;;;;4.88;3.90;;;20.40;99.90;;;;;;5054173;28;20178;-63
2022/04/18 11:29:54;;;;;;;5.45;3.53;;;20.40;99.90;;;;;;5053936;28;20181;-63
2022/04/18 11:32:23;;;;;;;5.22;3.53;;;20.70;99.90;;;;;;5054125;28;20182;-63
2022/04/18 11:34:51;;;;;;;4.45;3.28;;;20.70;99.90;;;;;;5054288;28;20163;-63
2022/04/18 11:37:33;;;;;;;5.35;3.45;;;20.90;99.90;;;;;;5053662;28;20254;-63
2022/04/18 11:40:05;;;;;;;5.10;3.47;;;21.10;99.90;;;;;;5052636;28;20224;-63
2022/04/18 11:42:32;;;;;;;6.07;3.30;;;21.00;99.90;;;;;;5053915;28;20655;-63
2022/04/18 11:45:00;;;;;;;4.32;3.20;;;21.10;99.90;;;;;;5053785;28;20204;-63
2022/04/18 11:47:28;;;;;;;3.70;3.08;;;21.50;99.90;;;;;;5054814;28;20563;-63
2022/04/18 11:49:58;;;;;;;3.33;2.85;;;21.80;99.90;;;;;;5054123;28;20173;-62
2022/04/18 11:52:27;;;;;;;5.72;2.90;;;22.00;99.90;;;;;;5053669;28;20174;-63
2022/04/18 11:54:57;;;;;;;3.90;2.83;;;22.20;99.90;;;;;;5053578;28;20272;-62
2022/04/18 11:57:24;;;;;;;5.95;3.17;;;22.30;99.90;;;;;;5053922;28;20563;-63
2022/04/18 11:59:50;;;;;;;4.03;2.80;;;22.30;99.90;;;;;;5053632;28;20253;-63
2022/04/18 12:07:46;;;;;;;4.00;3.00;;;22.40;99.90;;;;;;5057276;28;20227;-64
2022/04/18 12:10:25;;;;;;;5.25;3.20;;;22.50;99.90;;;;;;5072879;28;20665;-62
2022/04/18 12:12:52;;;;;;;4.47;3.13;;;22.60;99.90;;;;;;5073622;28;20158;-62
2022/04/18 12:15:25;;;;;;;6.15;3.20;;;22.70;99.90;;;;;;5073783;28;20232;-65
2022/04/18 12:17:52;;;;;;;3.45;2.97;;;22.70;99.90;;;;;;5073712;28;20158;-63
2022/04/18 12:20:22;;;;;;;3.55;2.70;;;22.80;99.90;;;;;;5073209;28;20202;-64
2022/04/18 12:22:52;;;;;;;3.08;2.60;;;23.20;99.90;;;;;;5073660;28;20542;-64
2022/04/18 12:25:33;;;;;;;4.18;2.70;;;23.70;99.90;;;;;;5073338;28;20181;-64
2022/04/18 12:28:05;;;;;;;3.55;2.53;;;23.60;99.90;;;;;;5073849;28;20158;-63
2022/04/18 12:30:31;;;;;;;4.18;2.72;;;23.90;99.90;;;;;;5073339;28;20204;-63
2022/04/18 12:33:15;;;;;;;4.15;2.75;;;23.90;99.90;;;;;;5073617;28;20178;-69
2022/04/18 12:35:48;;;;;;;5.82;2.80;;;24.00;99.90;;;;;;5073148;28;20173;-67
2022/04/18 12:38:16;;;;;;;3.13;2.45;;;23.90;98.90;;;;;;5073398;28;20638;-69
2022/04/18 12:40:53;;;;;;;3.88;2.60;;;23.50;99.90;;;;;;5071986;28;20752;-70
2022/04/18 12:43:18;;;;;;;4.05;2.67;;;23.70;99.90;;;;;;5073363;28;20197;-70
2022/04/18 12:45:45;;;;;;;3.08;2.60;;;23.80;99.90;;;;;;5073946;28;20634;-70
2022/04/18 12:48:12;;;;;;;3.00;2.50;;;23.80;99.90;;;;;;5072016;28;20174;-70
2022/04/18 12:50:38;;;;;;;4.38;3.00;;;24.20;99.90;;;;;;5071901;28;20193;-70
2022/04/18 12:53:04;;;;;;;4.28;2.90;;;24.60;99.50;;;;;;5073077;28;20631;-69
2022/04/18 12:55:31;;;;;;;4.75;2.72;;;24.50;99.40;;;;;;5071943;28;20186;-72
2022/04/18 12:58:00;;;;;;;3.80;2.53;;;24.40;99.80;;;;;;5072231;28;20182;-72
2022/04/18 13:00:37;;;;;;;3.05;2.70;;;24.60;99.10;;;;;;5073674;28;20200;-72
2022/04/18 13:03:06;;;;;;;4.28;2.78;;;24.70;99.20;;;;;;5073366;28;20574;-72
2022/04/18 13:05:40;;;;;;;4.13;2.50;;;24.60;99.90;;;;;;5073519;28;20256;-72
2022/04/18 13:08:07;;;;;;;3.60;2.70;;;25.00;99.30;;;;;;5071613;28;20189;-72
2022/04/18 13:10:35;;;;;;;2.90;2.60;;;25.00;97.80;;;;;;5073367;28;20211;-72